Time;durP1;ratioP1;P1;durP2;ratioP2;P2;SDS_P1;SDS_P2;PMS_P1;PMS_P2;Temp;Humidity;BMP_temperature;BMP_pressure;BME280_temperature;BME280_humidity;BME280_pressure;Samples;Min_cycle;Max_cycle;Signal;HPM_P1;HPM_P2
2021/05/17 00:00:43;;;;;;;0.65;0.65;;;;;;;13.75;100.00;99608.78;1706942;83;21043;-52
2021/05/17 00:03:12;;;;;;;0.75;0.30;;;;;;;13.71;100.00;99621.52;1744614;81;21045;-52
2021/05/17 00:05:39;;;;;;;0.65;0.53;;;;;;;13.71;100.00;99632.51;1717031;82;21027;-47
2021/05/17 00:08:07;;;;;;;0.20;0.20;;;;;;;13.73;100.00;99641.23;1741364;81;21069;-47
2021/05/17 00:10:33;;;;;;;0.25;0.25;;;;;;;13.72;100.00;99639.63;1735812;81;21124;-51
2021/05/17 00:13:00;;;;;;;0.78;0.42;;;;;;;13.73;100.00;99652.22;1737434;81;21068;-49
2021/05/17 00:15:27;;;;;;;0.82;0.60;;;;;;;13.73;100.00;99645.36;1742618;81;21043;-45
2021/05/17 00:17:55;;;;;;;1.00;0.55;;;;;;;13.73;100.00;99641.23;1744555;79;21020;-46
2021/05/17 00:20:24;;;;;;;1.20;1.05;;;;;;;13.71;100.00;99625.64;1737360;81;21038;-49
2021/05/17 00:22:51;;;;;;;0.30;0.30;;;;;;;13.69;100.00;99622.41;1743501;81;21043;-50
2021/05/17 00:25:22;;;;;;;1.22;0.57;;;;;;;13.68;100.00;99617.25;1748853;80;21595;-50
2021/05/17 00:27:50;;;;;;;0.80;0.28;;;;;;;13.67;100.00;99617.80;1724985;81;21155;-50
2021/05/17 00:30:19;;;;;;;0.45;0.45;;;;;;;13.66;100.00;99632.66;1737585;81;21157;-50
2021/05/17 00:32:47;;;;;;;1.10;0.90;;;;;;;13.66;100.00;99646.39;1733781;81;21102;-45
2021/05/17 00:35:14;;;;;;;0.53;0.40;;;;;;;13.65;100.00;99655.77;1749544;81;21094;-45
2021/05/17 00:37:41;;;;;;;0.95;0.70;;;;;;;13.65;100.00;99669.48;1746479;81;20995;-45
2021/05/17 00:40:09;;;;;;;0.62;0.62;;;;;;;13.64;100.00;99670.59;1732888;81;21051;-45
2021/05/17 00:42:36;;;;;;;0.42;0.40;;;;;;;13.63;100.00;99674.48;1707012;83;21020;-45
2021/05/17 00:45:06;;;;;;;0.40;0.40;;;;;;;13.63;100.00;99677.23;1724777;81;21040;-46
2021/05/17 00:47:32;;;;;;;0.47;0.42;;;;;;;13.64;100.00;99681.58;1752410;81;21078;-50
2021/05/17 00:49:59;;;;;;;0.98;0.70;;;;;;;13.65;100.00;99672.77;1730857;81;21533;-50
2021/05/17 00:52:27;;;;;;;0.30;0.30;;;;;;;13.65;100.00;99668.66;1744001;81;21023;-51
2021/05/17 00:54:54;;;;;;;0.20;0.20;;;;;;;13.67;100.00;99667.78;1725964;81;21864;-45
2021/05/17 00:57:21;;;;;;;0.57;0.57;;;;;;;13.66;100.00;99676.58;1750624;81;21042;-45
2021/05/17 00:59:49;;;;;;;0.47;0.47;;;;;;;13.67;100.00;99683.68;1753404;81;21548;-45
2021/05/17 01:02:15;;;;;;;0.98;0.68;;;;;;;13.68;100.00;99694.92;1750682;81;21583;-50
2021/05/17 01:04:53;;;;;;;0.47;0.47;;;;;;;13.68;100.00;99711.39;1731022;81;21715;-50
2021/05/17 01:07:20;;;;;;;0.20;0.20;;;;;;;13.69;100.00;99739.09;1752494;81;21576;-51
2021/05/17 01:09:47;;;;;;;0.55;0.30;;;;;;;13.70;100.00;99751.70;1751772;81;21003;-45
2021/05/17 01:12:16;;;;;;;1.25;0.68;;;;;;;13.69;100.00;99754.19;1753535;81;21023;-51
2021/05/17 01:14:43;;;;;;;1.57;0.72;;;;;;;13.71;100.00;99754.69;1726874;81;21035;-46
2021/05/17 01:17:11;;;;;;;0.45;0.45;;;;;;;13.72;100.00;99751.36;1707741;83;21083;-46
2021/05/17 01:19:42;;;;;;;0.50;0.50;;;;;;;13.73;100.00;99746.94;1684624;83;21577;-51
2021/05/17 01:22:21;;;;;;;1.33;0.70;;;;;;;13.74;100.00;99742.25;1708441;83;21153;-47
2021/05/17 01:24:41;;;;;;;0.57;0.57;;;;;;;13.74;100.00;99714.23;1736221;81;21132;-54
2021/05/17 01:27:09;;;;;;;1.60;0.85;;;;;;;13.74;100.00;99680.48;1746870;81;21029;-47
2021/05/17 01:29:38;;;;;;;0.70;0.65;;;;;;;13.73;100.00;99678.88;1738080;81;21056;-49
2021/05/17 01:32:07;;;;;;;0.40;0.30;;;;;;;13.72;100.00;99693.71;1713325;81;21004;-48
2021/05/17 01:34:34;;;;;;;0.33;0.33;;;;;;;13.71;100.00;99712.13;1737802;81;21575;-47
2021/05/17 01:37:00;;;;;;;0.75;0.75;;;;;;;13.71;100.00;99721.73;1714925;82;21587;-53
2021/05/17 01:39:27;;;;;;;0.53;0.53;;;;;;;13.70;100.00;99711.89;1707580;82;21459;-48
2021/05/17 01:41:54;;;;;;;0.90;0.55;;;;;;;13.70;100.00;99685.01;1730844;81;21077;-49
2021/05/17 01:44:24;;;;;;;0.47;0.47;;;;;;;13.68;100.00;99695.50;1704857;83;21038;-50
2021/05/17 01:46:51;;;;;;;2.55;0.60;;;;;;;13.66;100.00;99695.80;1662891;85;21377;-54
2021/05/17 01:49:18;;;;;;;1.55;0.78;;;;;;;13.66;100.00;99680.70;1676544;84;21081;-47
2021/05/17 01:51:50;;;;;;;0.33;0.30;;;;;;;13.65;100.00;99674.14;1705914;83;20985;-47
2021/05/17 01:54:18;;;;;;;0.28;0.28;;;;;;;13.64;100.00;99689.81;1746646;81;21607;-51
2021/05/17 01:56:47;;;;;;;0.90;0.75;;;;;;;13.62;100.00;99700.30;1730671;81;21161;-54
2021/05/17 01:59:30;;;;;;;0.50;0.50;;;;;;;13.59;100.00;99673.49;1748933;81;21564;-47
2021/05/17 02:01:58;;;;;;;2.98;0.98;;;;;;;13.57;100.00;99611.81;1734120;81;21022;-56
2021/05/17 02:04:25;;;;;;;0.60;0.60;;;;;;;13.57;100.00;99491.84;1729856;81;21637;-55
2021/05/17 02:06:53;;;;;;;0.68;0.68;;;;;;;13.57;100.00;99358.72;1732457;81;21094;-49
2021/05/17 02:09:21;;;;;;;1.02;1.02;;;;;;;13.53;100.00;99326.22;1719265;82;21074;-55
2021/05/17 02:11:48;;;;;;;1.45;1.05;;;;;;;13.46;100.00;99356.89;1733990;80;21613;-49
2021/05/17 02:14:22;;;;;;;1.37;1.07;;;;;;;13.43;100.00;99482.98;1739867;81;21483;-54
2021/05/17 02:16:49;;;;;;;3.10;0.95;;;;;;;13.40;100.00;99527.50;1737201;81;21521;-47
2021/05/17 02:19:23;;;;;;;0.20;0.20;;;;;;;13.39;100.00;99525.33;1734262;81;21015;-49
2021/05/17 02:21:50;;;;;;;1.65;0.90;;;;;;;13.37;100.00;99522.09;1733232;81;21054;-48
2021/05/17 02:24:17;;;;;;;1.10;0.60;;;;;;;13.36;100.00;99499.11;1732598;81;21028;-47
2021/05/17 02:26:44;;;;;;;1.37;0.88;;;;;;;13.36;100.00;99494.99;1743185;81;21031;-49
2021/05/17 02:29:11;;;;;;;0.57;0.47;;;;;;;13.34;100.00;99489.25;1750110;81;21727;-47
2021/05/17 02:31:39;;;;;;;1.82;1.72;;;;;;;13.34;100.00;99465.13;1748875;81;21358;-46
2021/05/17 02:34:08;;;;;;;1.50;0.90;;;;;;;13.32;100.00;99462.69;1742947;81;21073;-50
2021/05/17 02:36:36;;;;;;;1.12;0.82;;;;;;;13.31;100.00;99454.23;1737964;81;21067;-47
2021/05/17 02:39:05;;;;;;;2.35;0.55;;;;;;;13.32;100.00;99442.11;1732039;81;21097;-46
2021/05/17 02:41:33;;;;;;;0.85;0.62;;;;;;;13.32;100.00;99422.91;1731432;81;21571;-46
2021/05/17 02:44:01;;;;;;;0.50;0.50;;;;;;;13.30;100.00;99401.87;1722172;81;22094;-46
2021/05/17 02:46:28;;;;;;;1.12;0.82;;;;;;;13.32;100.00;99396.04;1733838;81;21627;-45
2021/05/17 02:48:56;;;;;;;0.60;0.60;;;;;;;13.32;100.00;99392.73;1720910;81;20960;-45
2021/05/17 02:51:22;;;;;;;0.62;0.55;;;;;;;13.32;100.00;99379.00;1733193;81;21054;-50
2021/05/17 02:53:56;;;;;;;0.53;0.42;;;;;;;13.33;100.00;99372.41;1721158;81;21588;-50
2021/05/17 02:56:36;;;;;;;0.65;0.55;;;;;;;13.34;100.00;99372.64;1719257;81;21101;-50
2021/05/17 02:59:04;;;;;;;0.95;0.70;;;;;;;13.37;100.00;99367.64;1714916;81;21043;-45
2021/05/17 03:01:38;;;;;;;0.85;0.72;;;;;;;13.39;100.00;99377.73;1728836;81;21119;-46
2021/05/17 03:04:13;;;;;;;0.20;0.20;;;;;;;13.40;100.00;99379.33;1745607;81;21053;-49
2021/05/17 03:06:44;;;;;;;0.25;0.25;;;;;;;13.42;100.00;99380.61;1736042;81;21054;-50
2021/05/17 03:09:10;;;;;;;0.42;0.42;;;;;;;13.45;100.00;99377.79;1718010;82;21089;-47
2021/05/17 03:11:42;;;;;;;0.30;0.10;;;;;;;13.48;100.00;99373.05;1734580;81;21067;-49
2021/05/17 03:14:09;;;;;;;0.47;0.47;;;;;;;13.51;100.00;99369.64;1748733;81;21093;-46
2021/05/17 03:16:37;;;;;;;0.82;0.60;;;;;;;13.53;100.00;99365.44;1734983;81;21081;-49
2021/05/17 03:19:04;;;;;;;0.30;0.30;;;;;;;13.57;100.00;99371.07;1703233;83;21045;-46
2021/05/17 03:21:32;;;;;;;0.10;0.10;;;;;;;13.59;100.00;99379.80;1712038;83;21123;-50
2021/05/17 03:23:59;;;;;;;0.82;0.62;;;;;;;13.63;100.00;99398.61;1751468;80;21367;-45
2021/05/17 03:26:26;;;;;;;0.15;0.15;;;;;;;13.67;100.00;99402.30;1771085;79;21037;-45
2021/05/17 03:28:52;;;;;;;1.32;0.88;;;;;;;13.71;100.00;99397.78;1737030;82;21613;-45
2021/05/17 03:31:19;;;;;;;0.30;0.30;;;;;;;13.75;100.00;99389.14;1733298;82;21025;-49
2021/05/17 03:33:45;;;;;;;4.75;1.02;;;;;;;13.80;100.00;99385.96;1687744;83;21466;-49
2021/05/17 03:36:12;;;;;;;1.00;1.00;;;;;;;13.83;100.00;99397.69;1749831;81;21026;-44
2021/05/17 03:38:38;;;;;;;1.02;0.30;;;;;;;13.85;100.00;99400.92;1750411;81;21367;-49
2021/05/17 03:41:08;;;;;;;0.40;0.37;;;;;;;13.86;100.00;99400.57;1733689;81;21078;-49
2021/05/17 03:43:35;;;;;;;0.95;0.82;;;;;;;13.88;100.00;99399.69;1752964;81;21103;-47
2021/05/17 03:46:01;;;;;;;1.00;0.53;;;;;;;13.89;100.00;99394.99;1743899;81;21057;-51
2021/05/17 03:48:29;;;;;;;0.33;0.23;;;;;;;13.89;100.00;99395.80;1721035;81;21035;-45
2021/05/17 03:50:55;;;;;;;0.62;0.30;;;;;;;13.87;100.00;99375.28;1690444;83;21074;-51
2021/05/17 03:53:22;;;;;;;0.30;0.30;;;;;;;13.86;100.00;99369.00;1706569;83;21583;-49
2021/05/17 03:55:48;;;;;;;0.55;0.35;;;;;;;13.86;100.00;99369.56;1708702;83;21043;-50
2021/05/17 03:58:15;;;;;;;0.20;0.20;;;;;;;13.86;100.00;99372.31;1711471;83;21107;-49
2021/05/17 04:00:42;;;;;;;1.27;0.50;;;;;;;13.87;100.00;99377.48;1751950;80;21050;-50
2021/05/17 04:03:17;;;;;;;0.68;0.53;;;;;;;13.88;100.00;99379.09;1748738;80;21062;-45
2021/05/17 04:13:31;;;;;;;0.57;0.50;;;;;;;13.91;100.00;99410.01;1724759;80;21047;-45
2021/05/17 04:15:57;;;;;;;0.30;0.30;;;;;;;13.88;100.00;99420.28;1738065;81;21475;-45
2021/05/17 04:18:24;;;;;;;1.02;0.93;;;;;;;13.89;100.00;99419.70;1745384;81;21042;-50
2021/05/17 04:20:52;;;;;;;0.42;0.37;;;;;;;13.89;100.00;99377.14;1748180;81;21027;-50
2021/05/17 04:23:25;;;;;;;0.37;0.37;;;;;;;13.88;100.00;99351.63;1728257;81;21577;-50
2021/05/17 04:25:53;;;;;;;0.60;0.60;;;;;;;13.88;100.00;99356.32;1745817;80;21583;-50
2021/05/17 04:28:20;;;;;;;1.70;0.33;;;;;;;13.90;100.00;99359.55;1748338;81;21055;-50
2021/05/17 04:30:46;;;;;;;1.35;0.70;;;;;;;13.91;100.00;99368.81;1740437;81;21177;-46
2021/05/17 04:33:13;;;;;;;0.70;0.70;;;;;;;13.91;100.00;99380.38;1733675;81;21077;-50
2021/05/17 04:35:39;;;;;;;0.78;0.65;;;;;;;13.90;100.00;99378.77;1724383;81;21042;-46
2021/05/17 04:38:06;;;;;;;0.42;0.42;;;;;;;13.89;100.00;99362.04;1717710;82;21022;-45
2021/05/17 04:40:32;;;;;;;0.65;0.65;;;;;;;13.87;100.00;99339.05;1740695;81;21078;-50
2021/05/17 04:42:59;;;;;;;1.57;0.70;;;;;;;13.87;100.00;99299.77;1686814;83;21054;-46
2021/05/17 04:45:26;;;;;;;1.98;0.85;;;;;;;13.88;100.00;99271.20;1738135;81;21531;-50
2021/05/17 04:47:53;;;;;;;0.95;0.50;;;;;;;13.88;100.00;99266.50;1742469;80;21110;-50
2021/05/17 04:50:23;;;;;;;1.00;0.60;;;;;;;13.91;100.00;99263.66;1725461;81;21734;-50
2021/05/17 04:52:49;;;;;;;2.95;0.75;;;;;;;13.94;100.00;99249.27;1728990;81;20931;-46
2021/05/17 04:55:15;;;;;;;2.87;1.42;;;;;;;13.98;100.00;99218.64;1690190;83;21147;-50
2021/05/17 04:57:42;;;;;;;1.85;1.67;;;;;;;13.99;100.00;99202.39;1686860;83;21062;-44
2021/05/17 05:00:10;;;;;;;3.33;1.07;;;;;;;14.00;100.00;99180.67;1705019;82;21593;-49
2021/05/17 05:02:37;;;;;;;0.80;0.80;;;;;;;14.03;100.00;99173.70;1699401;83;21902;-49
2021/05/17 05:05:05;;;;;;;0.70;0.70;;;;;;;14.06;100.00;99165.59;1730460;81;21073;-49
2021/05/17 05:07:33;;;;;;;0.82;0.75;;;;;;;14.11;100.00;99164.59;1732974;81;21066;-49
2021/05/17 05:10:00;;;;;;;1.55;0.50;;;;;;;14.17;100.00;99169.56;1728833;81;21623;-44
2021/05/17 05:12:26;;;;;;;0.47;0.47;;;;;;;14.28;100.00;99169.16;1670656;84;21085;-48
2021/05/17 05:14:53;;;;;;;1.07;0.98;;;;;;;14.37;100.00;99177.56;1723437;81;21034;-48
2021/05/17 05:17:19;;;;;;;0.30;0.30;;;;;;;14.47;100.00;99191.48;1742442;81;21201;-45
2021/05/17 05:19:47;;;;;;;0.23;0.20;;;;;;;14.57;100.00;99219.96;1741449;80;21461;-44
2021/05/17 05:22:13;;;;;;;0.95;0.50;;;;;;;14.67;100.00;99244.07;1722889;82;21433;-44
2021/05/17 05:24:40;;;;;;;0.20;0.20;;;;;;;14.75;100.00;99263.23;1726788;81;21070;-48
2021/05/17 05:27:14;;;;;;;0.25;0.25;;;;;;;14.82;100.00;99278.63;1749509;81;21545;-43
2021/05/17 05:34:35;;;;;;;1.47;1.10;;;;;;;14.90;100.00;99270.06;1745753;81;21596;-44
2021/05/17 05:37:03;;;;;;;0.28;0.28;;;;;;;14.93;100.00;99257.58;1748433;81;21050;-47
2021/05/17 05:39:29;;;;;;;0.40;0.40;;;;;;;14.95;100.00;99254.72;1745529;81;21093;-45
2021/05/17 05:41:56;;;;;;;1.87;0.57;;;;;;;15.00;100.00;99273.77;1748246;81;21079;-47
2021/05/17 05:44:22;;;;;;;0.70;0.60;;;;;;;15.07;100.00;99275.19;1748775;81;22085;-47
2021/05/17 05:46:49;;;;;;;1.22;0.85;;;;;;;15.12;100.00;99282.66;1748468;81;21050;-43
2021/05/17 05:49:15;;;;;;;0.82;0.72;;;;;;;15.18;100.00;99272.23;1750281;81;21027;-47
2021/05/17 05:51:42;;;;;;;2.12;1.32;;;;;;;15.23;100.00;99252.20;1747516;81;21002;-43
2021/05/17 05:54:09;;;;;;;0.78;0.78;;;;;;;15.27;100.00;99278.45;1748900;81;21118;-45
2021/05/17 05:56:36;;;;;;;0.95;0.95;;;;;;;15.34;100.00;99275.16;1748769;81;21382;-43
2021/05/17 05:59:02;;;;;;;1.55;0.62;;;;;;;15.42;100.00;99262.67;1747677;81;21556;-43
2021/05/17 06:01:29;;;;;;;1.02;0.90;;;;;;;15.51;100.00;99269.47;1747517;81;21070;-47
2021/05/17 06:03:56;;;;;;;0.60;0.55;;;;;;;15.61;100.00;99279.24;1747907;81;21562;-46
2021/05/17 06:06:22;;;;;;;1.17;0.88;;;;;;;15.72;100.00;99272.16;1750538;81;21181;-47
2021/05/17 06:08:51;;;;;;;0.40;0.40;;;;;;;15.81;100.00;99262.43;1747157;81;21598;-46
2021/05/17 06:11:18;;;;;;;1.32;0.60;;;;;;;15.84;100.00;99237.74;1747599;81;21074;-46
2021/05/17 06:13:47;;;;;;;0.30;0.30;;;;;;;15.85;100.00;99191.72;1742674;81;21134;-43
2021/05/17 06:16:14;;;;;;;2.92;1.37;;;;;;;15.85;100.00;99182.91;1733649;81;21569;-46
2021/05/17 06:18:41;;;;;;;1.15;0.80;;;;;;;15.87;100.00;99190.25;1717553;82;21050;-47
2021/05/17 06:21:08;;;;;;;0.30;0.30;;;;;;;15.93;100.00;99196.33;1677405;84;21068;-47
2021/05/17 06:23:35;;;;;;;0.65;0.47;;;;;;;15.99;100.00;99185.86;1720912;82;21026;-42
2021/05/17 06:26:02;;;;;;;0.90;0.90;;;;;;;16.04;100.00;99189.76;1717357;82;21034;-42
2021/05/17 06:28:28;;;;;;;1.00;0.78;;;;;;;16.05;100.00;99188.05;1716966;82;21651;-47
2021/05/17 06:30:58;;;;;;;1.55;0.60;;;;;;;16.09;100.00;99181.25;1717981;82;21118;-46
2021/05/17 06:33:24;;;;;;;0.72;0.35;;;;;;;16.11;100.00;99203.17;1731240;81;20995;-46
2021/05/17 06:35:56;;;;;;;0.42;0.42;;;;;;;16.16;100.00;99224.19;1746827;80;21544;-46
2021/05/17 06:38:23;;;;;;;0.82;0.82;;;;;;;16.26;100.00;99227.84;1749002;81;21623;-42
2021/05/17 06:40:50;;;;;;;0.75;0.30;;;;;;;16.39;100.00;99249.88;1749283;81;20991;-42
2021/05/17 06:43:17;;;;;;;0.20;0.20;;;;;;;16.51;100.00;99252.61;1748523;81;21034;-43
2021/05/17 06:45:46;;;;;;;0.93;0.90;;;;;;;16.63;100.00;99262.23;1750057;81;20995;-42
2021/05/17 06:48:13;;;;;;;0.40;0.40;;;;;;;16.71;100.00;99295.77;1730510;81;21022;-42
2021/05/17 06:50:40;;;;;;;0.45;0.33;;;;;;;16.76;100.00;99323.13;1722539;81;21523;-42
2021/05/17 06:53:07;;;;;;;0.45;0.42;;;;;;;16.82;100.00;99362.92;1725285;81;21043;-42
2021/05/17 06:55:47;;;;;;;0.72;0.40;;;;;;;16.97;100.00;99387.03;1708020;81;21735;-42
2021/05/17 06:58:16;;;;;;;0.42;0.40;;;;;;;17.19;100.00;99379.61;1714702;82;21042;-46
2021/05/17 07:00:43;;;;;;;1.45;0.60;;;;;;;17.48;100.00;99362.48;1721808;82;21051;-42
2021/05/17 07:03:10;;;;;;;0.53;0.53;;;;;;;17.75;100.00;99371.08;1721486;82;21046;-42
2021/05/17 07:05:39;;;;;;;0.85;0.70;;;;;;;17.92;100.00;99354.20;1719329;83;21074;-44
2021/05/17 07:13:19;;;;;;;0.85;0.57;;;;;;;18.24;100.00;99372.98;1731112;81;21075;-46
2021/05/17 07:15:45;;;;;;;1.10;0.70;;;;;;;18.29;100.00;99400.95;1746716;81;21090;-41
2021/05/17 07:18:12;;;;;;;0.55;0.30;;;;;;;18.32;99.96;99400.81;1729584;81;21082;-44
2021/05/17 07:25:58;;;;;;;1.10;0.62;;;;;;;18.20;96.09;99421.05;1717950;82;22720;-46
2021/05/17 07:28:24;;;;;;;0.30;0.30;;;;;;;18.13;95.41;99438.86;1722934;82;21046;-47
2021/05/17 07:30:50;;;;;;;0.70;0.70;;;;;;;18.03;95.35;99468.63;1735884;81;21059;-46
2021/05/17 07:33:17;;;;;;;0.60;0.53;;;;;;;17.95;95.69;99484.79;1676050;84;21035;-41
2021/05/17 07:35:44;;;;;;;0.62;0.57;;;;;;;17.84;95.73;99471.23;1689198;83;21048;-42
2021/05/17 07:38:10;;;;;;;0.55;0.55;;;;;;;17.73;95.75;99468.16;1698476;83;21055;-47
2021/05/17 07:40:37;;;;;;;0.70;0.62;;;;;;;17.62;96.09;99454.59;1679471;84;21024;-47
2021/05/17 07:43:03;;;;;;;1.10;0.93;;;;;;;17.52;96.64;99454.52;1746462;81;21038;-42
2021/05/17 07:45:30;;;;;;;0.78;0.50;;;;;;;17.44;97.24;99476.18;1729181;81;21029;-44
2021/05/17 07:47:56;;;;;;;0.65;0.40;;;;;;;17.35;97.57;99495.63;1748063;81;21051;-46
2021/05/17 07:50:23;;;;;;;0.55;0.42;;;;;;;17.26;97.98;99511.54;1744816;81;21212;-41
2021/05/17 07:52:49;;;;;;;0.20;0.20;;;;;;;17.16;98.43;99519.71;1744161;81;21105;-45
2021/05/17 07:55:20;;;;;;;0.20;0.20;;;;;;;17.08;98.94;99544.66;1744911;81;21108;-46
2021/05/17 07:57:44;;;;;;;0.88;0.55;;;;;;;16.99;99.26;99569.63;1740053;81;21903;-42
2021/05/17 08:00:13;;;;;;;0.65;0.65;;;;;;;16.88;99.50;99583.05;1731525;82;21173;-41
2021/05/17 08:02:40;;;;;;;1.80;0.35;;;;;;;16.77;99.65;99593.70;1714735;82;21042;-42
2021/05/17 08:05:07;;;;;;;0.42;0.42;;;;;;;16.67;100.00;99581.72;1746042;81;21091;-42
2021/05/17 08:07:36;;;;;;;0.30;0.30;;;;;;;16.61;100.00;99581.69;1748248;81;21046;-42
2021/05/17 08:10:05;;;;;;;0.10;0.10;;;;;;;16.54;100.00;99585.58;1747405;81;21031;-48
2021/05/17 08:12:31;;;;;;;6.15;0.57;;;;;;;16.47;100.00;99588.11;1742545;81;21057;-48
2021/05/17 08:14:58;;;;;;;0.80;0.70;;;;;;;16.38;100.00;99565.33;1734918;81;21457;-50
2021/05/17 08:17:24;;;;;;;2.58;1.17;;;;;;;16.26;100.00;99503.48;1747735;81;21105;-51
2021/05/17 08:19:52;;;;;;;0.60;0.60;;;;;;;16.11;100.00;99398.83;1717887;82;21078;-46
2021/05/17 08:22:18;;;;;;;0.60;0.60;;;;;;;16.00;100.00;99376.19;1717806;82;21144;-47
2021/05/17 08:24:45;;;;;;;1.72;0.60;;;;;;;15.87;100.00;99328.53;1715124;81;21065;-45
2021/05/17 08:27:11;;;;;;;0.93;0.93;;;;;;;15.78;100.00;99279.07;1731261;81;21058;-52
2021/05/17 08:29:38;;;;;;;0.23;0.23;;;;;;;15.66;100.00;99237.14;1719081;81;21055;-52
2021/05/17 08:32:07;;;;;;;2.17;0.45;;;;;;;15.58;100.00;99198.68;1729804;81;21083;-45
2021/05/17 08:34:35;;;;;;;0.30;0.23;;;;;;;15.47;100.00;99148.78;1748108;81;21074;-52
2021/05/17 08:37:02;;;;;;;1.50;1.02;;;;;;;15.36;100.00;99127.80;1747046;81;21066;-46
2021/05/17 08:39:28;;;;;;;0.40;0.40;;;;;;;15.28;100.00;99088.80;1745219;81;21059;-52
2021/05/17 08:41:58;;;;;;;0.60;0.60;;;;;;;15.21;100.00;99089.97;1746640;81;21026;-45
2021/05/17 08:44:25;;;;;;;1.17;0.72;;;;;;;15.15;100.00;99114.70;1750540;81;21066;-52
2021/05/17 08:46:52;;;;;;;1.12;1.05;;;;;;;15.12;100.00;99182.80;1720478;81;21122;-51
2021/05/17 08:49:19;;;;;;;1.00;1.00;;;;;;;15.10;100.00;99220.27;1708931;83;21099;-52
2021/05/17 08:51:46;;;;;;;0.82;0.50;;;;;;;15.12;100.00;99236.45;1706953;82;21020;-52
2021/05/17 08:54:13;;;;;;;0.60;0.60;;;;;;;15.13;100.00;99250.43;1712735;81;21058;-51
2021/05/17 08:56:46;;;;;;;1.07;0.60;;;;;;;15.16;100.00;99285.55;1745067;81;21079;-51
2021/05/17 08:59:15;;;;;;;1.60;1.00;;;;;;;15.18;100.00;99306.63;1740191;81;21062;-46
2021/05/17 09:01:42;;;;;;;0.78;0.47;;;;;;;15.24;100.00;99305.29;1748857;81;21366;-46
2021/05/17 09:04:16;;;;;;;0.80;0.80;;;;;;;15.31;100.00;99295.12;1740795;81;21120;-45
2021/05/17 09:06:48;;;;;;;2.15;1.80;;;;;;;15.43;100.00;99287.70;1717248;82;21094;-46
2021/05/17 09:09:24;;;;;;;;;;;;;;;15.57;100.00;99283.23;1720187;82;21539;-46
2021/05/17 09:11:52;;;;;;;1.72;1.52;;;;;;;15.75;100.00;99285.82;1719144;82;20952;-50
2021/05/17 09:14:20;;;;;;;2.87;1.37;;;;;;;15.93;100.00;99280.92;1715007;82;21586;-45
2021/05/17 09:16:57;;;;;;;0.98;0.98;;;;;;;16.09;100.00;99274.94;1719628;82;21019;-49
2021/05/17 09:19:24;;;;;;;2.25;2.05;;;;;;;16.28;100.00;99287.56;1748505;81;21046;-44
2021/05/17 09:22:13;;;;;;;2.30;1.52;;;;;;;16.51;100.00;99296.73;1745874;81;21146;-43
2021/05/17 09:24:51;;;;;;;2.87;1.60;;;;;;;16.78;100.00;99307.63;1746773;81;21109;-47
2021/05/17 09:27:25;;;;;;;1.62;1.15;;;;;;;17.07;100.00;99302.36;1727813;81;21002;-47
2021/05/17 09:29:54;;;;;;;1.07;0.80;;;;;;;17.33;100.00;99296.41;1706922;82;21559;-46
2021/05/17 09:32:26;;;;;;;1.62;1.42;;;;;;;17.56;100.00;99305.48;1715039;82;21172;-47
2021/05/17 09:35:19;;;;;;;1.65;1.00;;;;;;;17.75;100.00;99296.48;1713996;82;21049;-46
2021/05/17 09:37:48;;;;;;;1.65;0.68;;;;;;;17.96;100.00;99308.13;1720563;82;21557;-44
2021/05/17 09:40:28;;;;;;;0.80;0.80;;;;;;;18.21;100.00;99305.97;1732819;82;21562;-47
2021/05/17 09:43:12;;;;;;;1.35;0.95;;;;;;;18.41;100.00;99305.45;1727036;81;21034;-44
2021/05/17 09:45:43;;;;;;;1.75;0.98;;;;;;;18.62;100.00;99304.31;1720475;82;21102;-47
2021/05/17 09:48:21;;;;;;;0.90;0.90;;;;;;;18.77;100.00;99306.30;1721078;82;21063;-47
2021/05/17 09:51:03;;;;;;;1.25;0.78;;;;;;;18.90;100.00;99318.02;1718334;82;21066;-43
2021/05/17 09:53:33;;;;;;;1.12;1.12;;;;;;;19.08;100.00;99319.78;1728024;81;21544;-47
2021/05/17 09:56:02;;;;;;;0.85;0.85;;;;;;;19.24;100.00;99321.11;1748397;81;21034;-44
2021/05/17 09:58:36;;;;;;;1.60;1.25;;;;;;;19.31;100.00;99322.05;1735200;81;21088;-42
2021/05/17 10:01:16;;;;;;;0.70;0.70;;;;;;;19.48;100.00;99331.05;1747634;81;21642;-47
2021/05/17 10:03:48;;;;;;;1.05;0.68;;;;;;;19.48;100.00;99331.05;1717329;82;21491;-43
2021/05/17 10:06:22;;;;;;;1.62;1.42;;;;;;;19.64;99.31;99320.69;1733084;82;21472;-47
2021/05/17 10:08:50;;;;;;;0.80;0.80;;;;;;;19.84;98.86;99316.52;1720996;82;20991;-48
2021/05/17 10:11:17;;;;;;;1.27;1.05;;;;;;;20.03;97.88;99302.59;1734882;81;21653;-48
2021/05/17 10:13:43;;;;;;;0.72;0.62;;;;;;;20.19;96.21;99304.62;1718046;82;21424;-47
2021/05/17 10:16:11;;;;;;;1.27;1.12;;;;;;;20.37;95.49;99301.32;1715095;82;21053;-48
2021/05/17 10:18:40;;;;;;;0.60;0.50;;;;;;;20.58;94.68;99301.67;1735307;81;21221;-47
2021/05/17 10:21:09;;;;;;;0.82;0.50;;;;;;;20.73;91.99;99296.33;1748289;81;21057;-42
2021/05/17 10:23:37;;;;;;;1.45;1.00;;;;;;;20.78;91.37;99301.55;1738538;81;21069;-42
2021/05/17 10:26:20;;;;;;;0.50;0.50;;;;;;;20.95;89.79;99311.30;1746247;81;21610;-42
2021/05/17 10:28:49;;;;;;;0.55;0.55;;;;;;;21.08;88.29;99309.87;1746155;81;21105;-42
2021/05/17 10:31:17;;;;;;;0.68;0.60;;;;;;;21.14;85.75;99308.37;1737125;81;21102;-47
2021/05/17 10:34:03;;;;;;;0.93;0.72;;;;;;;21.15;84.77;99307.19;1744742;81;21021;-42
2021/05/17 10:36:57;;;;;;;1.65;0.65;;;;;;;21.23;83.28;99308.86;1746804;81;21050;-42
2021/05/17 10:39:40;;;;;;;0.88;0.68;;;;;;;21.22;82.76;99314.81;1705231;83;21168;-42
2021/05/17 10:48:34;;;;;;;0.70;0.68;;;;;;;21.31;82.08;99325.61;1714503;82;21038;-44
2021/05/17 10:51:19;;;;;;;1.77;0.70;;;;;;;21.72;82.02;99325.11;1718337;82;21499;-47
2021/05/17 10:53:50;;;;;;;0.82;0.82;;;;;;;21.93;80.93;99320.92;1718462;82;21019;-41
2021/05/17 10:56:20;;;;;;;1.22;0.50;;;;;;;22.11;81.21;99314.95;1720635;83;21023;-47
2021/05/17 11:01:53;;;;;;;1.15;0.90;;;;;;;22.31;78.45;99315.53;1732655;81;21070;-47
2021/05/17 11:04:31;;;;;;;0.93;0.90;;;;;;;22.32;75.56;99320.69;1650486;86;21068;-47
2021/05/17 11:07:31;;;;;;;0.57;0.57;;;;;;;22.33;74.92;99309.78;1719637;81;21044;-47
2021/05/17 11:10:14;;;;;;;0.60;0.50;;;;;;;22.41;74.48;99312.62;1690619;83;21032;-47
2021/05/17 11:12:57;;;;;;;1.25;1.00;;;;;;;22.38;75.25;99316.15;1747339;81;21087;-43
2021/05/17 11:15:27;;;;;;;0.60;0.60;;;;;;;22.48;76.14;99318.23;1725933;81;21039;-47
2021/05/17 11:18:04;;;;;;;1.00;0.85;;;;;;;22.59;74.98;99324.66;1717962;82;21078;-41
2021/05/17 11:23:27;;;;;;;0.65;0.50;;;;;;;22.64;73.60;99317.92;1714356;82;21547;-47
2021/05/17 11:28:43;;;;;;;4.22;0.82;;;;;;;22.67;73.52;99328.28;1745914;81;21690;-42
2021/05/17 11:31:28;;;;;;;0.60;0.60;;;;;;;22.79;72.01;99331.34;1747382;81;21091;-41
2021/05/17 11:33:59;;;;;;;0.53;0.53;;;;;;;22.86;71.91;99329.99;1745642;81;21468;-47
2021/05/17 11:36:39;;;;;;;0.90;0.85;;;;;;;22.98;71.50;99331.08;1739643;81;21090;-41
2021/05/17 11:39:17;;;;;;;0.98;0.72;;;;;;;22.97;70.95;99335.01;1746892;81;21066;-42
2021/05/17 11:42:02;;;;;;;1.50;1.12;;;;;;;22.95;70.89;99334.02;1750681;80;21066;-44
2021/05/17 11:45:26;;;;;;;0.57;0.50;;;;;;;22.99;69.75;99337.45;1746745;81;21653;-42
2021/05/17 11:47:17;;;;;;;0.57;0.57;;;;;;;23.04;70.42;99344.03;1732276;81;21502;-42
2021/05/17 11:49:44;;;;;;;1.57;0.60;;;;;;;23.17;70.53;99341.92;1742538;81;21472;-42
2021/05/17 11:52:23;;;;;;;0.50;0.50;;;;;;;23.20;69.81;99337.55;1742975;81;21017;-46
2021/05/17 11:54:58;;;;;;;0.50;0.50;;;;;;;23.20;68.68;99336.77;1738317;81;21064;-42
2021/05/17 11:57:40;;;;;;;0.65;0.50;;;;;;;23.34;68.88;99331.22;1737641;81;21100;-42
2021/05/17 12:00:12;;;;;;;0.60;0.57;;;;;;;23.43;67.12;99328.08;1735487;81;21551;-47
2021/05/17 12:02:47;;;;;;;0.88;0.70;;;;;;;23.41;66.72;99328.46;1729289;81;21026;-41
2021/05/17 12:05:15;;;;;;;0.98;0.70;;;;;;;23.50;67.18;99328.89;1743914;81;21157;-42
2021/05/17 12:07:46;;;;;;;0.65;0.65;;;;;;;23.48;66.85;99328.48;1723178;81;21030;-41
2021/05/17 12:10:14;;;;;;;0.40;0.40;;;;;;;23.49;67.14;99334.28;1716323;82;21218;-42
2021/05/17 12:12:41;;;;;;;0.78;0.78;;;;;;;23.56;67.09;99335.66;1736992;81;21368;-42
2021/05/17 12:15:11;;;;;;;0.70;0.57;;;;;;;23.57;66.90;99331.70;1734356;81;21043;-42